If you wish to contribute or participate in the discussions about articles you are invited to join SKYbrary as a registered user

 Actions

Saint-Nazaire-Montoir Airport

From SKYbrary Wiki

LFRZ
Airport
ICAO: LFRZ – IATA: SNR
Summary
Name Saint-Nazaire-Montoir Airport
Region Europe
Territory France FR.gif
Location , Pays de la Loire
Serving St.-nazaire
Elevation 3.962 m
13 ft
13 ft3.962 m
Type medium airport
Coordinates 47° 18' 43.88" N, 2° 8' 57.05" W
Runways
Designator Length Width Surface ROPS
8/26 2400 m7,874.016 ft
45 m147.638 ft
ASP /


METAR
Observation LFRZ 201400Z AUTO 08011KT CAVOK 23/11 Q1023 NOSIG
Station St-Nazaire
Date/Time 20 April 2019 14:00:00
Wind direction 80°
Wind speed 11 kts
Lowest cloud amount clouds and visibility OK
Temperature 23°C
Dew point 11°C
Humidity 46%
QNH 1023 hPa
Weather condition n/a